Time;durP1;ratioP1;P1;durP2;ratioP2;P2;SDS_P1;SDS_P2;PMS_P1;PMS_P2;Temp;Humidity;BMP_temperature;BMP_pressure;BME280_temperature;BME280_humidity;BME280_pressure;Samples;Min_cycle;Max_cycle;Signal;HPM_P1;HPM_P2
2021/01/23 00:01:17;;;;;;;11.70;11.00;;;5.00;99.90;;;;;;5033630;28;20182;-58
2021/01/23 00:03:43;;;;;;;4.22;1.63;;;5.00;99.90;;;;;;5033058;28;20541;-58
2021/01/23 00:06:08;;;;;;;8.30;5.03;;;4.90;99.90;;;;;;5033623;28;20284;-58
2021/01/23 00:08:34;;;;;;;1.90;0.70;;;4.90;99.90;;;;;;5029897;28;20186;-59
2021/01/23 00:10:59;;;;;;;1.70;0.20;;;4.90;99.90;;;;;;5033505;28;20217;-61
2021/01/23 00:13:25;;;;;;;3.73;2.40;;;4.90;99.90;;;;;;5032317;28;20545;-58
2021/01/23 00:15:50;;;;;;;7.00;3.60;;;4.90;99.90;;;;;;5030551;28;20236;-58
2021/01/23 00:18:16;;;;;;;3.23;1.93;;;4.90;99.90;;;;;;5032730;28;20645;-59
2021/01/23 00:20:41;;;;;;;1.70;0.20;;;4.90;99.90;;;;;;5032071;28;20179;-58
2021/01/23 00:23:07;;;;;;;8.17;5.70;;;4.90;99.90;;;;;;5031784;28;20205;-58
2021/01/23 00:25:32;;;;;;;33.83;9.13;;;4.80;99.90;;;;;;5031989;28;20554;-58
2021/01/23 00:27:58;;;;;;;3.70;1.70;;;4.80;99.90;;;;;;5035223;28;20277;-58
2021/01/23 00:30:23;;;;;;;8.60;5.27;;;4.80;99.90;;;;;;5030805;28;20182;-59
2021/01/23 00:32:49;;;;;;;6.53;3.60;;;4.80;99.90;;;;;;5034384;28;20190;-60
2021/01/23 00:35:15;;;;;;;6.40;4.13;;;4.80;99.90;;;;;;5031060;28;20204;-58
2021/01/23 00:37:41;;;;;;;5.87;4.00;;;4.80;99.90;;;;;;5031699;28;20189;-59
2021/01/23 00:40:07;;;;;;;3.47;2.05;;;4.80;99.90;;;;;;5028440;28;20213;-58
2021/01/23 00:42:33;;;;;;;1.70;0.20;;;4.80;99.90;;;;;;5030082;28;20648;-58
2021/01/23 00:44:58;;;;;;;14.30;4.60;;;4.80;99.90;;;;;;5039966;28;20229;-58
2021/01/23 00:47:24;;;;;;;1.70;0.20;;;4.70;99.90;;;;;;5031611;28;20182;-58
2021/01/23 00:49:49;;;;;;;15.87;8.80;;;4.70;99.90;;;;;;5030214;28;20224;-57
2021/01/23 00:52:15;;;;;;;2.10;1.00;;;4.70;99.90;;;;;;5030664;28;20189;-58
2021/01/23 00:54:40;;;;;;;2.10;1.57;;;4.70;99.90;;;;;;5032005;28;20197;-58
2021/01/23 00:57:06;;;;;;;6.90;3.90;;;4.70;99.90;;;;;;5030005;28;20725;-59
2021/01/23 00:59:31;;;;;;;4.90;1.17;;;4.70;99.90;;;;;;5030593;28;20214;-58
2021/01/23 01:01:57;;;;;;;1.90;0.70;;;4.70;99.90;;;;;;5033031;28;20549;-58
2021/01/23 01:04:22;;;;;;;6.23;3.33;;;4.70;99.90;;;;;;5032386;28;20308;-58
2021/01/23 01:06:48;;;;;;;5.63;4.03;;;4.70;99.90;;;;;;5028380;28;20673;-58
2021/01/23 01:09:14;;;;;;;4.18;2.67;;;4.70;99.90;;;;;;5031915;28;20202;-58
2021/01/23 01:11:39;;;;;;;2.93;0.70;;;4.70;99.90;;;;;;5029694;28;20201;-60
2021/01/23 01:14:05;;;;;;;8.20;4.93;;;4.70;99.90;;;;;;5032614;28;20653;-58
2021/01/23 01:16:31;;;;;;;7.33;4.70;;;4.70;99.90;;;;;;5028907;28;20284;-59
2021/01/23 01:18:56;;;;;;;9.53;9.03;;;4.70;99.90;;;;;;5032271;28;20204;-58
2021/01/23 01:21:22;;;;;;;3.20;2.40;;;4.70;99.90;;;;;;5032182;28;20429;-58
2021/01/23 01:23:47;;;;;;;4.33;1.63;;;4.70;99.90;;;;;;5031885;28;20205;-59
2021/01/23 01:26:13;;;;;;;1.90;0.60;;;4.80;99.90;;;;;;5031841;28;20206;-59
2021/01/23 01:28:38;;;;;;;1.70;0.27;;;4.80;99.90;;;;;;5032756;28;20248;-59
2021/01/23 01:31:04;;;;;;;1.70;0.20;;;4.70;99.90;;;;;;5027864;28;20224;-59
2021/01/23 01:33:29;;;;;;;2.40;1.33;;;4.80;99.90;;;;;;5033297;28;20239;-58
2021/01/23 01:35:55;;;;;;;2.20;1.00;;;4.80;99.90;;;;;;5030481;28;20220;-59
2021/01/23 01:38:20;;;;;;;9.43;4.47;;;4.90;99.90;;;;;;5031075;28;20212;-59
2021/01/23 01:40:46;;;;;;;1.70;0.20;;;4.80;99.90;;;;;;5032568;28;20232;-58
2021/01/23 01:43:11;;;;;;;5.80;3.00;;;4.80;99.90;;;;;;5031647;28;20236;-58
2021/01/23 01:45:37;;;;;;;5.50;3.97;;;4.80;99.90;;;;;;5033763;28;20210;-59
2021/01/23 01:48:03;;;;;;;5.30;2.93;;;4.80;99.90;;;;;;5031118;28;20672;-58
2021/01/23 01:50:28;;;;;;;1.70;0.20;;;4.90;99.90;;;;;;5030443;28;20175;-58
2021/01/23 01:52:54;;;;;;;2.63;1.00;;;4.90;99.90;;;;;;5031419;28;20209;-58
2021/01/23 01:55:30;;;;;;;3.40;1.73;;;5.00;99.90;;;;;;5032803;28;20255;-58
2021/01/23 01:57:55;;;;;;;3.63;1.83;;;4.90;99.90;;;;;;5030175;28;20189;-58
2021/01/23 02:00:21;;;;;;;4.30;3.30;;;4.90;99.90;;;;;;5030098;28;20531;-58
2021/01/23 02:03:14;;;;;;;1.70;0.20;;;4.90;99.90;;;;;;5030816;28;20217;-58
2021/01/23 02:06:16;;;;;;;2.10;0.82;;;5.00;99.90;;;;;;5028628;28;20288;-58
2021/01/23 02:08:53;;;;;;;1.70;0.20;;;5.00;99.90;;;;;;5024849;28;20189;-58
2021/01/23 02:11:50;;;;;;;5.93;3.70;;;5.00;99.90;;;;;;5030188;28;20561;-58
2021/01/23 02:14:35;;;;;;;3.55;2.35;;;5.00;99.90;;;;;;5033161;28;20669;-58
2021/01/23 02:17:06;;;;;;;11.65;3.42;;;5.00;99.90;;;;;;5028474;28;20192;-58
2021/01/23 02:19:44;;;;;;;1.70;0.20;;;4.90;99.90;;;;;;5031314;28;20561;-58
2021/01/23 02:22:28;;;;;;;3.35;1.85;;;4.90;99.90;;;;;;5032283;28;20277;-58
2021/01/23 02:24:55;;;;;;;2.00;0.50;;;4.90;99.90;;;;;;5048542;28;20212;-58
2021/01/23 02:27:45;;;;;;;5.90;3.63;;;4.90;99.90;;;;;;5052058;28;20193;-60
2021/01/23 02:30:57;;;;;;;1.70;0.20;;;5.00;99.90;;;;;;5045582;28;20194;-59
2021/01/23 02:33:24;;;;;;;4.90;3.25;;;5.00;99.90;;;;;;5053178;28;20178;-58
2021/01/23 02:35:51;;;;;;;2.15;0.65;;;5.00;99.90;;;;;;5035556;28;20231;-58
2021/01/23 02:38:16;;;;;;;6.43;3.70;;;5.00;99.90;;;;;;5042083;28;20186;-58
2021/01/23 02:40:42;;;;;;;4.80;4.40;;;5.00;99.90;;;;;;5033217;28;20312;-58
2021/01/23 02:43:07;;;;;;;3.30;1.70;;;4.90;99.90;;;;;;5031140;28;20552;-58
2021/01/23 02:45:33;;;;;;;3.53;1.97;;;5.00;99.90;;;;;;5036687;28;20203;-58
2021/01/23 02:47:58;;;;;;;2.10;0.70;;;5.00;99.90;;;;;;5028017;28;20300;-58
2021/01/23 02:50:24;;;;;;;2.10;0.70;;;5.00;99.90;;;;;;5027032;28;20190;-58
2021/01/23 02:53:16;;;;;;;2.90;1.73;;;5.00;99.90;;;;;;5030963;28;20236;-58
2021/01/23 02:55:46;;;;;;;8.80;2.65;;;5.10;99.90;;;;;;5030271;28;20202;-58
2021/01/23 02:58:16;;;;;;;1.70;0.30;;;5.10;99.90;;;;;;5023940;28;20653;-58
2021/01/23 03:00:43;;;;;;;4.22;2.28;;;5.10;99.90;;;;;;5030527;28;20281;-58
2021/01/23 03:03:10;;;;;;;3.30;1.90;;;5.10;99.90;;;;;;5028054;28;20370;-58
2021/01/23 03:05:38;;;;;;;1.70;0.20;;;5.10;99.90;;;;;;5027744;28;20636;-58
2021/01/23 03:08:04;;;;;;;1.80;0.30;;;5.10;99.90;;;;;;5028585;28;20587;-58
2021/01/23 03:10:42;;;;;;;1.70;0.20;;;5.10;99.90;;;;;;5029196;28;20219;-58
2021/01/23 03:13:08;;;;;;;2.33;0.95;;;5.10;99.90;;;;;;5025754;28;20179;-58
2021/01/23 03:15:35;;;;;;;1.70;0.20;;;5.20;99.90;;;;;;5029951;28;20297;-58
2021/01/23 03:18:01;;;;;;;3.50;1.80;;;5.20;99.90;;;;;;5030727;28;20221;-58
2021/01/23 03:20:27;;;;;;;1.70;0.20;;;5.20;99.90;;;;;;5029081;28;20225;-58
2021/01/23 03:22:54;;;;;;;2.05;1.08;;;5.20;99.90;;;;;;5032096;28;20673;-58
2021/01/23 03:25:19;;;;;;;1.70;0.20;;;5.20;99.90;;;;;;5027859;28;20255;-58
2021/01/23 03:27:45;;;;;;;1.70;0.20;;;5.30;99.90;;;;;;5028178;28;20190;-58
2021/01/23 03:30:11;;;;;;;1.80;0.40;;;5.30;99.90;;;;;;5031882;28;20220;-58
2021/01/23 03:32:36;;;;;;;1.70;0.20;;;5.30;99.90;;;;;;5029045;28;20196;-58
2021/01/23 03:35:04;;;;;;;1.80;0.40;;;5.30;99.90;;;;;;5027691;28;20472;-58
2021/01/23 03:37:30;;;;;;;1.70;0.20;;;5.30;99.90;;;;;;5029028;28;20182;-58
2021/01/23 03:39:55;;;;;;;1.70;0.20;;;5.20;99.90;;;;;;5026102;28;20212;-58
2021/01/23 03:42:21;;;;;;;1.70;0.20;;;5.20;99.90;;;;;;5028599;28;20183;-58
2021/01/23 03:44:46;;;;;;;1.67;0.20;;;5.20;99.90;;;;;;5031532;28;20608;-58
2021/01/23 03:47:12;;;;;;;1.80;0.40;;;5.20;99.90;;;;;;5029966;28;20249;-58
2021/01/23 03:49:37;;;;;;;1.80;0.50;;;5.20;99.90;;;;;;5031091;28;20193;-58
2021/01/23 03:52:04;;;;;;;2.30;0.63;;;5.20;99.90;;;;;;5031100;28;20174;-58
2021/01/23 03:54:29;;;;;;;1.67;0.20;;;5.20;99.90;;;;;;5025389;28;20194;-58
2021/01/23 03:56:54;;;;;;;1.70;0.30;;;5.10;99.90;;;;;;5028765;28;20703;-58
2021/01/23 03:59:20;;;;;;;1.70;0.37;;;5.10;99.90;;;;;;5029439;28;20240;-58
2021/01/23 04:01:46;;;;;;;1.63;0.20;;;5.10;99.90;;;;;;5028343;28;20228;-58
2021/01/23 04:04:11;;;;;;;1.63;0.20;;;5.10;99.90;;;;;;5027941;28;20495;-58
2021/01/23 04:06:37;;;;;;;2.93;2.13;;;5.20;99.90;;;;;;5028027;28;20565;-59
2021/01/23 04:09:03;;;;;;;37.13;35.10;;;5.20;99.90;;;;;;5026074;28;20267;-59
2021/01/23 04:11:28;;;;;;;1.60;0.20;;;5.20;99.90;;;;;;5029887;28;20190;-59
2021/01/23 04:13:54;;;;;;;1.60;0.20;;;5.20;99.90;;;;;;5028511;28;20519;-60
2021/01/23 04:16:19;;;;;;;1.70;0.20;;;5.20;99.90;;;;;;5024059;28;20597;-59
2021/01/23 04:18:46;;;;;;;1.67;0.20;;;5.20;99.90;;;;;;5028097;28;20213;-59
2021/01/23 04:21:11;;;;;;;1.70;0.20;;;5.30;99.90;;;;;;5027261;28;20255;-59
2021/01/23 04:23:37;;;;;;;1.70;0.20;;;5.30;99.90;;;;;;5029306;28;20182;-59
2021/01/23 04:26:03;;;;;;;1.67;0.20;;;5.30;99.90;;;;;;5030012;28;20206;-59
2021/01/23 04:28:29;;;;;;;1.70;0.20;;;5.40;99.90;;;;;;5030536;28;20193;-59
2021/01/23 04:30:54;;;;;;;1.63;0.20;;;5.40;99.90;;;;;;5032422;28;20657;-59
2021/01/23 04:33:20;;;;;;;1.63;0.20;;;5.40;99.90;;;;;;5033377;28;20676;-59
2021/01/23 04:35:45;;;;;;;1.90;0.97;;;5.40;99.90;;;;;;5030640;28;20259;-59
2021/01/23 04:38:11;;;;;;;1.60;0.20;;;5.40;99.90;;;;;;5032680;28;20209;-59
2021/01/23 04:40:36;;;;;;;1.67;0.20;;;5.40;99.90;;;;;;5033125;28;20206;-59
2021/01/23 04:43:02;;;;;;;1.60;0.20;;;5.40;99.90;;;;;;5028755;28;20182;-59
2021/01/23 04:45:28;;;;;;;1.80;0.30;;;5.40;99.90;;;;;;5035432;28;20217;-59
2021/01/23 04:47:54;;;;;;;1.60;0.20;;;5.30;99.90;;;;;;5031729;28;20839;-59
2021/01/23 04:50:20;;;;;;;1.70;0.20;;;5.30;99.90;;;;;;5031014;28;20186;-59
2021/01/23 04:52:45;;;;;;;1.63;0.20;;;5.20;99.90;;;;;;5032669;28;20174;-59
2021/01/23 04:55:11;;;;;;;1.63;0.20;;;5.20;99.90;;;;;;5032716;28;20228;-59
2021/01/23 04:57:37;;;;;;;1.60;0.20;;;5.20;99.90;;;;;;5031085;28;20224;-59
2021/01/23 05:00:06;;;;;;;1.65;0.20;;;5.20;99.90;;;;;;5026604;28;20241;-59
2021/01/23 05:02:31;;;;;;;1.83;0.55;;;5.20;99.90;;;;;;5031404;28;20210;-59
2021/01/23 05:04:59;;;;;;;1.80;0.50;;;5.20;99.90;;;;;;5031723;28;20291;-59
2021/01/23 05:07:28;;;;;;;1.60;0.20;;;5.20;99.90;;;;;;5031253;28;20541;-59
2021/01/23 05:09:54;;;;;;;1.63;0.20;;;5.20;99.90;;;;;;5029070;28;20653;-59
2021/01/23 05:12:37;;;;;;;2.30;1.05;;;5.10;99.90;;;;;;5029538;28;20190;-59
2021/01/23 05:15:05;;;;;;;2.95;1.55;;;5.00;99.90;;;;;;5028821;28;20209;-59
2021/01/23 05:17:31;;;;;;;1.63;0.20;;;5.00;99.90;;;;;;5028936;28;20190;-59
2021/01/23 05:19:57;;;;;;;1.60;0.20;;;4.90;99.90;;;;;;5031375;28;20741;-59
2021/01/23 05:22:23;;;;;;;1.60;0.20;;;5.00;99.90;;;;;;5032873;28;20439;-60
2021/01/23 05:24:53;;;;;;;2.00;0.63;;;5.00;99.90;;;;;;5030192;28;20561;-59
2021/01/23 05:27:19;;;;;;;3.08;1.20;;;5.00;99.90;;;;;;5030252;28;20197;-60
2021/01/23 05:29:56;;;;;;;1.65;0.20;;;5.00;99.90;;;;;;5028476;28;20657;-59
2021/01/23 05:32:22;;;;;;;3.45;0.75;;;5.00;99.90;;;;;;5026342;28;20337;-59
2021/01/23 05:34:47;;;;;;;1.70;0.20;;;4.90;99.90;;;;;;5031984;28;20245;-59
2021/01/23 05:37:34;;;;;;;1.63;0.20;;;4.80;99.90;;;;;;5032506;28;20186;-59
2021/01/23 05:40:00;;;;;;;1.60;0.20;;;4.90;99.90;;;;;;5031756;28;20216;-57
2021/01/23 05:42:25;;;;;;;1.60;0.20;;;4.80;99.90;;;;;;5033681;28;20186;-58
2021/01/23 05:45:05;;;;;;;2.10;0.60;;;4.70;99.90;;;;;;5029472;28;20208;-59
2021/01/23 05:47:31;;;;;;;1.70;0.20;;;4.70;99.90;;;;;;5023407;28;20187;-59
2021/01/23 05:49:56;;;;;;;1.60;0.20;;;4.70;99.90;;;;;;5032249;28;20208;-59
2021/01/23 05:52:22;;;;;;;1.97;0.47;;;4.70;99.90;;;;;;5029729;28;20186;-59
2021/01/23 05:54:48;;;;;;;1.70;0.30;;;4.70;99.90;;;;;;5030553;28;20612;-59
2021/01/23 05:57:14;;;;;;;2.20;0.73;;;4.70;99.90;;;;;;5031411;28;20191;-59
2021/01/23 05:59:41;;;;;;;1.60;0.20;;;4.50;99.90;;;;;;5031800;28;21010;-59
2021/01/23 06:02:12;;;;;;;1.70;0.20;;;4.50;99.90;;;;;;5027218;28;20190;-59
2021/01/23 06:04:41;;;;;;;1.70;0.20;;;4.50;99.90;;;;;;5028543;28;20277;-59
2021/01/23 06:07:06;;;;;;;1.70;0.20;;;4.50;99.90;;;;;;5031834;28;20277;-59
2021/01/23 06:09:40;;;;;;;1.70;0.40;;;4.60;99.90;;;;;;5030302;28;20263;-59
2021/01/23 06:12:31;;;;;;;2.95;1.25;;;4.60;99.90;;;;;;5030955;28;20281;-59
2021/01/23 06:14:57;;;;;;;1.65;0.20;;;4.50;99.90;;;;;;5030094;28;20206;-59
2021/01/23 06:17:45;;;;;;;3.03;1.43;;;4.50;99.90;;;;;;5028738;28;20205;-59
2021/01/23 06:20:11;;;;;;;1.70;0.20;;;4.40;99.90;;;;;;5027996;28;20575;-59
2021/01/23 06:22:54;;;;;;;1.70;0.40;;;4.40;99.90;;;;;;5032482;28;20264;-59
2021/01/23 06:25:19;;;;;;;1.70;0.20;;;4.30;99.90;;;;;;5029933;28;20644;-59
2021/01/23 06:27:48;;;;;;;3.30;0.83;;;4.30;99.90;;;;;;5029863;28;20189;-59
2021/01/23 06:30:30;;;;;;;1.70;0.20;;;4.30;99.90;;;;;;5028362;28;20185;-59
2021/01/23 06:32:55;;;;;;;2.13;0.40;;;4.30;99.90;;;;;;5027241;28;20708;-59
2021/01/23 06:35:21;;;;;;;4.03;2.60;;;4.30;99.90;;;;;;5029876;28;20205;-59
2021/01/23 06:37:47;;;;;;;1.70;0.20;;;4.30;99.90;;;;;;5029166;28;20679;-60
2021/01/23 06:40:27;;;;;;;2.57;1.20;;;4.30;99.90;;;;;;5032267;28;20206;-59
2021/01/23 06:42:54;;;;;;;1.70;0.20;;;4.20;99.90;;;;;;5047627;28;20209;-60
2021/01/23 06:45:37;;;;;;;4.45;2.60;;;4.30;99.90;;;;;;5047405;28;20283;-60
2021/01/23 06:48:03;;;;;;;5.35;2.65;;;4.20;99.90;;;;;;5044692;28;20215;-60
2021/01/23 06:50:36;;;;;;;2.07;0.70;;;4.20;99.90;;;;;;5047281;28;21138;-66
2021/01/23 06:53:03;;;;;;;2.10;0.68;;;4.20;99.90;;;;;;5033027;28;20584;-60
2021/01/23 06:55:39;;;;;;;1.70;0.20;;;4.20;99.90;;;;;;5027824;28;20289;-59
2021/01/23 06:58:04;;;;;;;5.45;3.55;;;4.20;99.90;;;;;;5031750;28;20266;-60
2021/01/23 07:00:35;;;;;;;1.80;0.43;;;4.20;99.90;;;;;;5030615;28;20301;-59
2021/01/23 07:03:14;;;;;;;3.75;2.25;;;4.20;99.90;;;;;;5031607;28;20886;-59
2021/01/23 07:05:51;;;;;;;2.75;1.15;;;4.10;99.90;;;;;;5026014;28;20216;-59
2021/01/23 07:08:30;;;;;;;4.38;1.98;;;4.10;99.90;;;;;;5032844;28;20205;-59
2021/01/23 07:11:22;;;;;;;1.70;0.20;;;4.10;99.90;;;;;;5027053;28;20201;-59
2021/01/23 07:14:06;;;;;;;4.18;1.48;;;4.10;99.90;;;;;;5024187;28;20197;-59
2021/01/23 07:16:34;;;;;;;3.33;1.88;;;4.10;99.90;;;;;;5031560;28;20682;-59
2021/01/23 07:19:04;;;;;;;3.05;0.65;;;4.10;99.90;;;;;;5028895;28;20209;-59
2021/01/23 07:21:38;;;;;;;3.97;2.17;;;4.10;99.90;;;;;;5028794;28;20178;-59
2021/01/23 07:24:03;;;;;;;4.75;1.98;;;4.10;99.90;;;;;;5028487;28;20182;-59
2021/01/23 07:26:31;;;;;;;1.70;0.20;;;4.10;99.90;;;;;;5027904;28;20557;-59
2021/01/23 07:28:57;;;;;;;2.33;0.43;;;4.20;99.90;;;;;;5024317;28;20692;-59
2021/01/23 07:31:31;;;;;;;2.30;0.83;;;4.20;99.90;;;;;;5018742;28;20198;-59
2021/01/23 07:33:59;;;;;;;1.70;0.20;;;4.10;99.90;;;;;;5021690;28;20518;-59
2021/01/23 07:36:35;;;;;;;5.32;2.30;;;4.20;99.90;;;;;;5029723;28;20553;-59
2021/01/23 07:39:05;;;;;;;5.10;2.97;;;4.20;99.90;;;;;;5031063;28;20253;-59
2021/01/23 07:41:33;;;;;;;3.00;1.55;;;4.20;99.90;;;;;;5028652;28;20770;-59
2021/01/23 07:44:01;;;;;;;1.73;0.20;;;4.20;99.90;;;;;;5026799;28;20197;-59
2021/01/23 07:46:41;;;;;;;3.30;1.38;;;4.30;99.90;;;;;;5031873;28;20210;-59
2021/01/23 07:49:08;;;;;;;2.35;0.63;;;4.30;99.90;;;;;;5025624;28;20182;-59
2021/01/23 07:51:34;;;;;;;2.58;1.15;;;4.30;99.90;;;;;;5021153;28;20706;-59
2021/01/23 07:54:11;;;;;;;1.80;0.30;;;4.20;99.90;;;;;;5031915;28;20198;-59
2021/01/23 07:56:38;;;;;;;1.70;0.25;;;4.20;99.90;;;;;;5027484;28;20460;-59
2021/01/23 07:59:04;;;;;;;9.68;5.25;;;4.30;99.90;;;;;;5024018;28;20699;-59
2021/01/23 08:01:29;;;;;;;3.50;1.70;;;4.30;99.90;;;;;;5030465;28;20178;-58
2021/01/23 08:03:55;;;;;;;2.63;1.20;;;4.30;99.90;;;;;;5028091;28;20361;-59
2021/01/23 08:06:23;;;;;;;1.70;0.20;;;4.30;99.90;;;;;;5028869;28;20211;-57
2021/01/23 08:08:49;;;;;;;1.70;0.20;;;4.40;99.90;;;;;;5029136;28;20520;-57
2021/01/23 08:11:41;;;;;;;1.73;0.20;;;4.50;99.90;;;;;;5032804;28;20186;-57
2021/01/23 08:14:15;;;;;;;1.77;0.30;;;4.50;99.90;;;;;;5028846;28;20190;-59
2021/01/23 08:16:54;;;;;;;1.70;0.20;;;4.30;99.90;;;;;;5024047;28;20225;-59
2021/01/23 08:19:20;;;;;;;7.05;3.88;;;4.30;99.90;;;;;;5026438;28;20210;-59
2021/01/23 08:22:05;;;;;;;1.75;0.20;;;4.40;99.90;;;;;;5031002;28;20301;-59
2021/01/23 08:24:31;;;;;;;1.73;0.20;;;4.40;99.90;;;;;;5033000;28;20190;-60
2021/01/23 08:27:21;;;;;;;1.70;0.20;;;4.40;99.90;;;;;;5031118;28;20178;-60
2021/01/23 08:29:50;;;;;;;1.75;0.30;;;4.40;99.90;;;;;;5023079;28;20288;-59
2021/01/23 08:32:16;;;;;;;1.70;0.20;;;4.50;99.90;;;;;;5032658;28;20186;-58
2021/01/23 08:34:43;;;;;;;1.70;0.20;;;4.50;99.90;;;;;;5033720;28;20197;-60
2021/01/23 08:37:10;;;;;;;1.70;0.20;;;4.60;99.90;;;;;;5033295;28;20918;-58
2021/01/23 08:39:47;;;;;;;1.70;0.20;;;4.60;99.90;;;;;;5032825;28;20220;-60
2021/01/23 08:42:12;;;;;;;1.73;0.20;;;4.70;99.90;;;;;;5032976;28;20186;-60
2021/01/23 08:44:39;;;;;;;1.70;0.20;;;4.80;99.90;;;;;;5032093;28;20595;-59
2021/01/23 08:47:04;;;;;;;1.73;0.20;;;4.80;99.90;;;;;;5042655;28;20227;-60
2021/01/23 08:49:31;;;;;;;1.80;0.20;;;4.80;99.90;;;;;;5028970;28;20280;-60
2021/01/23 08:51:56;;;;;;;1.80;0.50;;;4.90;99.90;;;;;;5028697;28;20259;-59
2021/01/23 08:54:22;;;;;;;1.70;0.20;;;4.80;99.90;;;;;;5038674;28;20240;-59
2021/01/23 08:56:48;;;;;;;1.70;0.20;;;4.90;99.90;;;;;;5031065;28;20217;-59
2021/01/23 08:59:14;;;;;;;1.70;0.20;;;5.00;99.90;;;;;;5027797;28;20210;-60
2021/01/23 09:01:40;;;;;;;4.80;1.70;;;5.00;99.90;;;;;;5032675;28;20201;-58
2021/01/23 09:04:05;;;;;;;1.70;0.30;;;5.00;99.90;;;;;;5033079;28;20182;-59
2021/01/23 09:06:31;;;;;;;1.70;0.20;;;5.00;99.90;;;;;;5028306;28;20470;-59
2021/01/23 09:08:56;;;;;;;1.70;0.20;;;5.10;99.90;;;;;;5028365;28;20197;-60
2021/01/23 09:11:22;;;;;;;2.10;0.83;;;5.20;99.90;;;;;;5025601;28;20183;-59
2021/01/23 09:13:47;;;;;;;1.70;0.20;;;5.10;99.90;;;;;;5023277;28;20187;-60
2021/01/23 09:16:13;;;;;;;1.70;0.20;;;5.20;99.90;;;;;;5031669;28;20198;-60
2021/01/23 09:18:38;;;;;;;1.70;0.20;;;5.20;99.90;;;;;;5026773;28;20193;-60
2021/01/23 09:21:04;;;;;;;2.13;0.83;;;5.30;99.90;;;;;;5028793;28;20673;-60
2021/01/23 09:23:30;;;;;;;2.67;2.03;;;5.30;99.90;;;;;;5027304;28;20186;-60
2021/01/23 09:25:56;;;;;;;4.20;1.63;;;5.30;99.90;;;;;;5024627;28;20712;-60
2021/01/23 09:28:23;;;;;;;2.25;0.93;;;5.30;99.90;;;;;;5025245;28;20449;-59
2021/01/23 09:30:49;;;;;;;2.05;1.20;;;5.30;99.90;;;;;;5027264;28;20711;-61
2021/01/23 09:33:14;;;;;;;1.70;0.47;;;5.30;99.90;;;;;;5024456;28;20194;-60
2021/01/23 09:35:40;;;;;;;1.70;0.20;;;5.30;99.90;;;;;;5025753;28;20218;-58
2021/01/23 09:38:05;;;;;;;1.63;0.20;;;5.30;99.90;;;;;;5029852;28;20205;-61
2021/01/23 09:40:31;;;;;;;1.70;0.20;;;5.30;99.90;;;;;;5024409;28;20631;-60
2021/01/23 09:42:56;;;;;;;2.47;0.50;;;5.30;99.90;;;;;;5024326;28;20183;-58
2021/01/23 09:45:22;;;;;;;1.67;0.20;;;5.30;99.90;;;;;;5023603;28;20209;-61
2021/01/23 09:47:47;;;;;;;1.63;0.20;;;5.20;99.90;;;;;;5028302;28;20231;-61
2021/01/23 09:50:13;;;;;;;3.07;1.30;;;5.30;99.90;;;;;;5029391;28;20193;-60
2021/01/23 09:52:38;;;;;;;1.93;0.83;;;5.40;99.90;;;;;;5026327;28;20190;-60
2021/01/23 09:55:05;;;;;;;1.67;0.20;;;5.30;99.90;;;;;;5029941;28;20218;-60
2021/01/23 09:57:30;;;;;;;1.95;0.52;;;5.30;99.90;;;;;;5030091;28;20224;-60
2021/01/23 09:59:56;;;;;;;1.70;0.20;;;5.40;99.90;;;;;;5029612;28;20236;-61
2021/01/23 10:02:21;;;;;;;3.60;0.97;;;5.30;99.90;;;;;;5030528;28;20233;-59
2021/01/23 10:04:47;;;;;;;1.70;0.20;;;5.30;99.90;;;;;;5026380;28;20182;-60
2021/01/23 10:07:12;;;;;;;4.53;1.83;;;5.40;99.90;;;;;;5027651;28;20186;-60
2021/01/23 10:09:38;;;;;;;1.67;0.20;;;5.40;99.90;;;;;;5027414;28;20637;-60
2021/01/23 10:12:04;;;;;;;3.30;1.80;;;5.40;99.90;;;;;;5030705;28;20275;-59
2021/01/23 10:14:29;;;;;;;2.38;0.77;;;5.30;99.90;;;;;;5026542;28;20193;-60
2021/01/23 10:16:55;;;;;;;1.60;0.20;;;5.30;99.90;;;;;;5023860;28;20190;-60
2021/01/23 10:19:20;;;;;;;6.60;2.90;;;5.30;99.90;;;;;;5024281;28;20206;-61
2021/01/23 10:21:46;;;;;;;1.70;0.20;;;5.30;99.90;;;;;;5031359;28;20246;-62
2021/01/23 10:24:12;;;;;;;5.47;1.83;;;5.40;99.90;;;;;;5031380;28;20182;-60
2021/01/23 10:26:37;;;;;;;1.70;0.20;;;5.40;99.90;;;;;;5028696;28;20229;-60
2021/01/23 10:29:03;;;;;;;1.70;0.30;;;5.30;99.90;;;;;;5031330;28;20322;-61
2021/01/23 10:31:28;;;;;;;7.93;4.03;;;5.30;99.90;;;;;;5028888;28;20182;-60
2021/01/23 10:33:54;;;;;;;5.03;1.70;;;5.20;99.90;;;;;;5024142;28;20222;-60
2021/01/23 10:36:20;;;;;;;1.60;0.20;;;5.10;99.90;;;;;;5030781;28;20213;-61
2021/01/23 10:38:46;;;;;;;1.60;0.20;;;5.10;99.90;;;;;;5009483;28;20243;-61
2021/01/23 10:41:12;;;;;;;1.70;0.30;;;5.20;99.90;;;;;;5028126;28;20224;-62
2021/01/23 10:43:37;;;;;;;1.70;0.27;;;5.20;99.90;;;;;;5031532;28;20247;-60
2021/01/23 10:46:03;;;;;;;1.63;0.20;;;5.20;99.90;;;;;;5032189;28;20461;-59
2021/01/23 10:48:29;;;;;;;1.60;0.20;;;5.20;99.90;;;;;;5030301;28;20585;-59
2021/01/23 10:50:55;;;;;;;1.60;0.20;;;5.20;99.90;;;;;;5030635;28;20646;-59
2021/01/23 10:53:20;;;;;;;1.63;0.20;;;5.40;99.90;;;;;;5030087;28;20201;-59
2021/01/23 10:55:46;;;;;;;2.57;1.20;;;5.40;99.90;;;;;;5032495;28;20214;-61
2021/01/23 10:58:12;;;;;;;1.70;0.20;;;5.40;99.90;;;;;;5047665;28;20196;-60
2021/01/23 11:00:37;;;;;;;1.70;0.20;;;5.50;99.90;;;;;;5040563;28;20288;-59
2021/01/23 11:03:04;;;;;;;1.70;0.20;;;5.50;99.90;;;;;;5044064;28;20189;-59
2021/01/23 11:05:29;;;;;;;1.70;0.30;;;5.40;99.90;;;;;;5037251;28;20224;-58
2021/01/23 11:07:55;;;;;;;1.70;0.20;;;5.40;99.90;;;;;;5035391;28;20182;-60
2021/01/23 11:10:21;;;;;;;1.67;0.20;;;5.50;99.90;;;;;;5032307;28;20185;-61
2021/01/23 11:12:46;;;;;;;5.53;5.10;;;5.60;99.90;;;;;;5033255;28;20595;-60
2021/01/23 11:15:12;;;;;;;1.70;0.20;;;5.60;99.90;;;;;;5031366;28;20279;-59
2021/01/23 11:17:38;;;;;;;1.70;0.20;;;5.50;99.90;;;;;;5028503;28;20196;-59
2021/01/23 11:20:05;;;;;;;2.45;1.10;;;5.60;99.90;;;;;;5032483;28;20475;-59
2021/01/23 11:22:31;;;;;;;1.65;0.20;;;5.60;99.90;;;;;;5031950;28;20186;-60
2021/01/23 11:24:56;;;;;;;1.70;0.30;;;5.60;99.90;;;;;;5034637;28;20233;-59
2021/01/23 11:27:22;;;;;;;1.80;0.70;;;5.60;99.90;;;;;;5034015;28;20701;-59
2021/01/23 11:29:47;;;;;;;1.60;0.20;;;5.60;99.90;;;;;;5033453;28;20240;-59
2021/01/23 11:32:13;;;;;;;1.70;0.37;;;5.60;99.90;;;;;;5025974;28;20194;-59
2021/01/23 11:34:38;;;;;;;3.77;2.00;;;5.70;99.90;;;;;;5026379;28;20591;-59
2021/01/23 11:37:04;;;;;;;1.67;0.20;;;5.60;99.90;;;;;;5034354;28;20239;-59
2021/01/23 11:39:29;;;;;;;4.83;3.23;;;5.60;99.90;;;;;;5030942;28;20209;-60
2021/01/23 11:41:55;;;;;;;1.60;0.20;;;5.50;99.90;;;;;;5029588;28;20189;-59
2021/01/23 11:44:21;;;;;;;1.60;0.20;;;5.60;99.90;;;;;;5031296;28;20186;-60
2021/01/23 11:46:46;;;;;;;1.70;0.20;;;5.50;99.90;;;;;;5036488;28;20584;-60
2021/01/23 11:49:12;;;;;;;1.90;0.40;;;5.50;99.90;;;;;;5029615;28;20606;-61
2021/01/23 11:51:37;;;;;;;1.70;0.40;;;5.60;99.90;;;;;;5035909;28;20181;-59
2021/01/23 11:54:03;;;;;;;1.60;0.20;;;5.70;99.90;;;;;;5026731;28;20205;-59
2021/01/23 11:56:29;;;;;;;1.63;0.20;;;5.80;99.90;;;;;;5033125;28;20606;-59
2021/01/23 11:58:54;;;;;;;1.63;0.20;;;5.90;99.90;;;;;;5034176;28;20193;-61
2021/01/23 12:01:20;;;;;;;1.60;0.20;;;6.00;99.90;;;;;;5033840;28;20213;-60
2021/01/23 12:03:45;;;;;;;1.70;0.30;;;5.90;99.90;;;;;;5028540;28;20249;-59
2021/01/23 12:06:11;;;;;;;1.63;0.20;;;6.00;99.90;;;;;;5031454;28;20224;-59
2021/01/23 12:08:36;;;;;;;1.60;0.20;;;6.00;99.90;;;;;;5030002;28;20649;-60
2021/01/23 12:11:02;;;;;;;1.60;0.30;;;6.10;99.90;;;;;;5032126;28;20232;-59
2021/01/23 12:13:28;;;;;;;1.60;0.20;;;6.10;99.90;;;;;;5034408;28;20263;-59
2021/01/23 12:15:54;;;;;;;1.60;0.20;;;6.00;99.90;;;;;;5027650;28;20508;-59
2021/01/23 12:18:20;;;;;;;1.63;0.20;;;6.00;99.90;;;;;;5037211;28;20719;-59
2021/01/23 12:20:46;;;;;;;1.60;0.20;;;6.00;99.90;;;;;;5034016;28;20503;-59
2021/01/23 12:23:11;;;;;;;1.65;0.20;;;6.00;99.90;;;;;;5030821;28;20501;-64
2021/01/23 12:25:37;;;;;;;1.60;0.20;;;6.10;99.90;;;;;;5016233;28;20674;-59
2021/01/23 12:28:03;;;;;;;1.60;0.20;;;6.10;99.90;;;;;;5032638;28;20627;-61
2021/01/23 12:30:28;;;;;;;1.80;0.33;;;6.10;99.90;;;;;;5033135;28;20201;-59
2021/01/23 12:32:54;;;;;;;3.20;2.63;;;6.10;99.90;;;;;;5015969;28;20189;-60
2021/01/23 12:35:20;;;;;;;1.60;0.20;;;6.10;99.90;;;;;;5030821;28;20281;-60
2021/01/23 12:37:46;;;;;;;9.33;8.73;;;6.20;99.90;;;;;;5035122;28;20178;-59
2021/01/23 12:40:13;;;;;;;1.70;0.30;;;6.20;99.90;;;;;;5037639;28;20472;-60
2021/01/23 12:42:39;;;;;;;1.65;0.20;;;6.20;99.90;;;;;;5034847;28;20505;-60
2021/01/23 12:45:10;;;;;;;1.90;0.30;;;6.20;99.90;;;;;;5034619;28;20237;-59
2021/01/23 12:47:35;;;;;;;2.08;0.45;;;6.20;99.90;;;;;;5032426;28;20178;-59
2021/01/23 12:50:01;;;;;;;1.67;0.27;;;6.20;99.90;;;;;;5031047;28;20205;-60
2021/01/23 12:52:27;;;;;;;5.57;2.23;;;6.20;99.90;;;;;;5033222;28;20189;-60
2021/01/23 12:54:52;;;;;;;1.60;0.20;;;6.10;99.90;;;;;;5031071;28;20572;-60
2021/01/23 12:57:18;;;;;;;1.63;0.20;;;6.10;99.90;;;;;;5033177;28;20182;-61
2021/01/23 12:59:43;;;;;;;1.60;0.20;;;6.10;99.90;;;;;;5033159;28;20210;-60
2021/01/23 13:02:09;;;;;;;1.60;0.20;;;6.10;99.90;;;;;;5031589;28;20181;-61